createdAt,value
2019-03-25T00:01:30.270Z,97001.83
2019-03-25T00:03:56.102Z,97001.83
2019-03-25T00:06:22.043Z,96989.28
2019-03-25T00:08:47.961Z,96988.98
2019-03-25T00:11:13.805Z,96996.77
2019-03-25T00:13:39.665Z,96988.78
2019-03-25T00:16:05.619Z,96989.33
2019-03-25T00:18:31.441Z,96990.34
2019-03-25T00:20:57.269Z,96986.91
2019-03-25T00:23:23.088Z,96982.89
2019-03-25T00:25:48.925Z,96978.91
2019-03-25T00:28:14.772Z,96971.75
2019-03-25T00:30:40.611Z,96976.91
2019-03-25T00:33:06.428Z,96974.13
2019-03-25T00:35:32.253Z,96969.10
2019-03-25T00:37:58.120Z,96963.73
2019-03-25T00:40:23.977Z,96963.11
2019-03-25T00:42:49.809Z,96956.16
2019-03-25T00:45:15.636Z,96945.70
2019-03-25T00:47:41.489Z,96943.02
2019-03-25T00:50:07.602Z,96945.94
2019-03-25T00:52:33.476Z,96947.40
2019-03-25T00:54:59.295Z,96944.37
2019-03-25T00:57:25.131Z,96942.58
2019-03-25T00:59:51.291Z,96929.23
2019-03-25T01:02:17.106Z,96924.59
2019-03-25T01:04:42.946Z,96926.70
2019-03-25T01:07:08.781Z,96931.39
2019-03-25T01:09:34.627Z,96926.68
2019-03-25T01:12:00.439Z,96928.27
2019-03-25T01:14:26.279Z,96920.96
2019-03-25T01:16:52.351Z,96924.84
2019-03-25T01:19:18.197Z,96922.94
2019-03-25T01:21:44.009Z,96914.85
2019-03-25T01:24:09.856Z,96919.52
2019-03-25T01:26:35.682Z,96919.52
2019-03-25T01:29:01.519Z,96916.05
2019-03-25T01:31:27.370Z,96919.64
2019-03-25T01:33:53.222Z,96919.28
2019-03-25T01:36:19.049Z,96921.32
2019-03-25T01:38:44.880Z,96923.13
2019-03-25T01:41:10.730Z,96918.08
2019-03-25T01:43:36.818Z,96911.28
2019-03-25T01:46:02.682Z,96904.73
2019-03-25T01:48:28.534Z,96898.77
2019-03-25T01:50:54.415Z,96886.75
2019-03-25T01:53:20.237Z,96889.66
2019-03-25T01:55:46.080Z,96891.23
2019-03-25T01:58:11.920Z,96881.28
2019-03-25T02:00:37.929Z,96880.92
2019-03-25T02:03:03.790Z,96878.66
2019-03-25T02:05:29.623Z,96876.11
2019-03-25T02:07:55.464Z,96881.84
2019-03-25T02:10:21.296Z,96876.37
2019-03-25T02:12:47.150Z,96881.98
2019-03-25T02:15:13.073Z,96887.91
2019-03-25T02:17:38.927Z,96883.13
2019-03-25T02:20:05.160Z,96878.41
2019-03-25T02:22:31.161Z,96865.79
2019-03-25T02:24:56.996Z,96873.89
2019-03-25T02:27:22.834Z,96873.89
2019-03-25T02:29:48.703Z,96863.02
2019-03-25T02:32:14.516Z,96871.81
2019-03-25T02:34:40.376Z,96866.84
2019-03-25T02:37:06.203Z,96864.95
2019-03-25T02:39:32.034Z,96860.13
2019-03-25T02:41:57.957Z,96849.94
2019-03-25T02:44:23.805Z,96855.45
2019-03-25T02:46:49.669Z,96852.25
2019-03-25T02:49:15.466Z,96852.02
2019-03-25T02:51:41.310Z,96853.05
2019-03-25T02:54:07.168Z,96852.87
2019-03-25T02:56:32.992Z,96852.50
2019-03-25T02:58:58.837Z,96849.93
2019-03-25T03:01:24.701Z,96848.92
2019-03-25T03:03:50.527Z,96842.58
2019-03-25T03:06:16.402Z,96842.02
2019-03-25T03:08:42.243Z,96838.17
2019-03-25T03:11:08.059Z,96829.69
2019-03-25T03:13:33.910Z,96821.76
2019-03-25T03:15:59.741Z,96815.27
2019-03-25T03:18:25.581Z,96816.02
2019-03-25T03:20:51.402Z,96825.78
2019-03-25T03:23:17.235Z,96818.11
2019-03-25T03:25:56.526Z,96814.71
2019-03-25T03:28:10.808Z,96815.16
2019-03-25T03:30:36.943Z,96817.02
2019-03-25T03:33:03.169Z,96824.63
2019-03-25T03:35:29.013Z,96818.05
2019-03-25T03:37:54.962Z,96820.92
2019-03-25T03:40:20.771Z,96816.38
2019-03-25T03:42:46.702Z,96817.30
2019-03-25T03:45:14.572Z,96816.19
2019-03-25T03:47:40.414Z,96814.13
2019-03-25T03:50:06.559Z,96807.69
2019-03-25T03:52:33.993Z,96813.23
2019-03-25T03:55:00.322Z,96812.70
2019-03-25T03:57:26.881Z,96809.07
2019-03-25T03:59:53.733Z,96813.58
2019-03-25T04:02:19.880Z,96802.33
2019-03-25T04:04:46.581Z,96807.31
2019-03-25T04:07:12.406Z,96808.14
2019-03-25T04:09:38.228Z,96808.14
2019-03-25T04:12:04.284Z,96811.09
2019-03-25T04:14:30.105Z,96807.99
2019-03-25T04:16:55.927Z,96808.98
2019-03-25T04:19:21.789Z,96807.15
2019-03-25T04:21:47.637Z,96811.33
2019-03-25T04:24:13.475Z,96815.25
2019-03-25T04:26:39.333Z,96819.41
2019-03-25T04:29:05.236Z,96813.67
2019-03-25T04:31:31.081Z,96810.00
2019-03-25T04:33:56.892Z,96814.20
2019-03-25T04:36:22.729Z,96814.19
2019-03-25T04:38:48.577Z,96813.95
2019-03-25T04:41:14.407Z,96820.80
2019-03-25T04:43:40.264Z,96812.70
2019-03-25T04:46:06.099Z,96812.70
2019-03-25T04:48:32.063Z,96813.52
2019-03-25T04:50:57.898Z,96814.84
2019-03-25T04:53:23.729Z,96818.30
2019-03-25T04:55:49.550Z,96815.66
2019-03-25T04:58:15.375Z,96816.05
2019-03-25T05:00:41.215Z,96808.98
2019-03-25T05:03:07.067Z,96808.27
2019-03-25T05:05:35.692Z,96807.50
2019-03-25T05:08:00.810Z,96811.48
2019-03-25T05:10:26.625Z,96810.25
2019-03-25T05:12:52.753Z,96807.90
2019-03-25T05:15:18.624Z,96801.45
2019-03-25T05:17:44.457Z,96801.45
2019-03-25T05:20:10.414Z,96808.49
2019-03-25T05:22:36.237Z,96808.23
2019-03-25T05:25:03.405Z,96801.72
2019-03-25T05:27:29.244Z,96803.57
2019-03-25T05:29:55.069Z,96799.08
2019-03-25T05:32:21.024Z,96796.48
2019-03-25T05:34:46.842Z,96790.58
2019-03-25T05:37:12.897Z,96791.72
2019-03-25T05:39:38.723Z,96793.84
2019-03-25T05:42:04.575Z,96797.98
2019-03-25T05:44:30.393Z,96797.27
2019-03-25T05:46:56.295Z,96800.14
2019-03-25T05:49:22.211Z,96800.14
2019-03-25T05:51:48.070Z,96804.81
2019-03-25T05:54:13.913Z,96806.61
2019-03-25T05:56:39.730Z,96804.71
2019-03-25T05:59:05.839Z,96809.39
2019-03-25T06:01:31.862Z,96803.12
2019-03-25T06:03:57.701Z,96804.97
2019-03-25T06:06:23.527Z,96805.20
2019-03-25T06:08:49.386Z,96798.13
2019-03-25T06:11:15.212Z,96800.99
2019-03-25T06:13:41.064Z,96800.99
2019-03-25T06:16:06.904Z,96807.20
2019-03-25T06:18:32.882Z,96806.89
2019-03-25T06:20:58.676Z,96813.63
2019-03-25T06:23:24.501Z,96805.18
2019-03-25T06:25:50.353Z,96798.39
2019-03-25T06:28:16.194Z,96800.45
2019-03-25T06:30:42.023Z,96794.42
2019-03-25T06:33:12.717Z,96791.37
2019-03-25T06:35:35.614Z,96801.30
2019-03-25T06:38:01.445Z,96798.67
2019-03-25T06:40:28.037Z,96808.53
2019-03-25T06:42:53.847Z,96797.16
2019-03-25T06:45:19.696Z,96803.95
2019-03-25T06:47:45.548Z,96790.39
2019-03-25T06:50:11.500Z,96800.37
2019-03-25T06:52:37.315Z,96787.52
2019-03-25T06:55:04.997Z,96784.96
2019-03-25T06:57:30.917Z,96780.86
2019-03-25T06:59:56.783Z,96776.00
2019-03-25T07:02:22.619Z,96774.34
2019-03-25T07:04:48.452Z,96779.92
2019-03-25T07:07:14.278Z,96775.77
2019-03-25T07:09:40.103Z,96776.05
2019-03-25T07:12:05.945Z,96782.04
2019-03-25T07:14:31.773Z,96784.58
2019-03-25T07:16:57.597Z,96781.17
2019-03-25T07:19:23.406Z,96772.15
2019-03-25T07:21:49.233Z,96782.97
2019-03-25T07:24:15.076Z,96776.29
2019-03-25T07:26:40.929Z,96777.03
2019-03-25T07:29:06.751Z,96780.75
2019-03-25T07:31:32.595Z,96776.92
2019-03-25T07:33:58.440Z,96772.98
2019-03-25T07:36:24.254Z,96774.69
2019-03-25T07:38:50.120Z,96778.52
2019-03-25T07:41:17.137Z,96762.80
2019-03-25T07:43:43.087Z,96752.45
2019-03-25T07:46:08.920Z,96762.44
2019-03-25T07:48:34.755Z,96773.23
2019-03-25T07:51:00.609Z,96784.25
2019-03-25T07:53:26.426Z,96781.71
2019-03-25T07:55:52.240Z,96775.22
2019-03-25T07:58:18.074Z,96780.28
2019-03-25T08:00:43.910Z,96770.69
2019-03-25T08:03:09.738Z,96765.38
2019-03-25T08:05:35.539Z,96769.05
2019-03-25T08:08:01.387Z,96769.48
2019-03-25T08:10:31.753Z,96755.22
2019-03-25T08:12:57.983Z,96747.43
2019-03-25T08:15:23.904Z,96753.52
2019-03-25T08:17:49.701Z,96771.19
2019-03-25T08:20:15.630Z,96760.92
2019-03-25T08:22:41.458Z,96748.84
2019-03-25T08:25:07.402Z,96771.44
2019-03-25T08:27:33.210Z,96767.33
2019-03-25T08:29:59.046Z,96785.80
2019-03-25T08:32:24.864Z,96783.93
2019-03-25T08:34:50.705Z,96785.37
2019-03-25T08:37:16.521Z,96781.84
2019-03-25T08:39:42.350Z,96790.31
2019-03-25T08:42:08.169Z,96791.81
2019-03-25T08:44:34.055Z,96790.45
2019-03-25T08:46:59.890Z,96775.52
2019-03-25T08:49:25.732Z,96765.27
2019-03-25T08:51:51.586Z,96773.23
2019-03-25T08:54:17.410Z,96764.38
2019-03-25T08:56:43.273Z,96766.03
2019-03-25T08:59:09.126Z,96767.78
2019-03-25T09:01:34.966Z,96777.45
2019-03-25T09:04:00.790Z,96769.70
2019-03-25T09:06:26.643Z,96774.89
2019-03-25T09:08:52.449Z,96773.73
2019-03-25T09:11:18.358Z,96769.63
2019-03-25T09:13:44.199Z,96774.38
2019-03-25T09:16:10.018Z,96766.69
2019-03-25T09:18:35.913Z,96765.80
2019-03-25T09:21:01.745Z,96769.34
2019-03-25T09:23:27.598Z,96768.17
2019-03-25T09:25:53.421Z,96757.73
2019-03-25T09:28:24.031Z,96777.53
2019-03-25T09:30:53.647Z,96771.30
2019-03-25T09:33:19.888Z,96774.84
2019-03-25T09:35:45.825Z,96775.41
2019-03-25T09:38:11.685Z,96773.45
2019-03-25T09:40:37.504Z,96778.97
2019-03-25T09:43:03.340Z,96784.33
2019-03-25T09:45:29.264Z,96796.58
2019-03-25T09:47:55.084Z,96805.86
2019-03-25T09:50:20.921Z,96800.68
2019-03-25T09:52:46.739Z,96806.88
2019-03-25T09:55:12.569Z,96808.31
2019-03-25T09:57:38.407Z,96804.04
2019-03-25T10:00:07.653Z,96806.69
2019-03-25T10:02:33.479Z,96800.97
2019-03-25T10:04:59.330Z,96803.66
2019-03-25T10:07:25.245Z,96804.92
2019-03-25T10:09:51.958Z,96812.22
2019-03-25T10:12:17.982Z,96826.03
2019-03-25T10:14:43.848Z,96824.52
2019-03-25T10:17:09.692Z,96813.75
2019-03-25T10:19:35.504Z,96817.52
2019-03-25T10:22:01.339Z,96807.99
2019-03-25T10:24:28.067Z,96811.79
2019-03-25T10:26:53.989Z,96812.73
2019-03-25T10:29:19.812Z,96802.05
2019-03-25T10:31:45.704Z,96810.03
2019-03-25T10:34:11.522Z,96797.25
2019-03-25T10:36:37.360Z,96797.26
2019-03-25T10:39:05.093Z,96778.07
2019-03-25T10:41:30.931Z,96788.80
2019-03-25T10:43:56.755Z,96788.91
2019-03-25T10:46:22.585Z,96784.19
2019-03-25T10:48:48.539Z,96786.08
2019-03-25T10:51:14.462Z,96780.20
2019-03-25T10:53:40.299Z,96787.50
2019-03-25T10:56:06.128Z,96776.09
2019-03-25T10:58:31.958Z,96784.52
2019-03-25T11:00:57.794Z,96779.92
2019-03-25T11:03:23.619Z,96771.44
2019-03-25T11:05:49.428Z,96775.53
2019-03-25T11:08:15.274Z,96778.34
2019-03-25T11:10:41.095Z,96772.89
2019-03-25T11:13:06.922Z,96776.05
2019-03-25T11:15:32.784Z,96766.62
2019-03-25T11:17:58.618Z,96764.30
2019-03-25T11:20:24.520Z,96760.75
2019-03-25T11:22:50.350Z,96768.45
2019-03-25T11:25:16.295Z,96762.02
2019-03-25T11:27:42.215Z,96767.84
2019-03-25T11:30:10.051Z,96764.05
2019-03-25T11:32:35.864Z,96762.66
2019-03-25T11:35:05.649Z,96758.14
2019-03-25T11:37:31.337Z,96767.92
2019-03-25T11:39:57.302Z,96757.10
2019-03-25T11:42:23.141Z,96756.53
2019-03-25T11:44:48.960Z,96761.76
2019-03-25T11:47:14.780Z,96756.16
2019-03-25T11:49:40.626Z,96759.63
2019-03-25T11:52:06.466Z,96754.70
2019-03-25T11:54:32.290Z,96757.05
2019-03-25T11:57:01.171Z,96755.50
2019-03-25T11:59:26.998Z,96742.27
2019-03-25T12:01:52.866Z,96741.59
2019-03-25T12:04:18.691Z,96744.14
2019-03-25T12:06:44.568Z,96744.18
2019-03-25T12:09:10.418Z,96734.37
2019-03-25T12:11:36.350Z,96738.88
2019-03-25T12:14:02.173Z,96725.91
2019-03-25T12:16:28.009Z,96732.42
2019-03-25T12:18:53.847Z,96732.99
2019-03-25T12:21:19.686Z,96735.24
2019-03-25T12:23:45.523Z,96730.98
2019-03-25T12:26:11.342Z,96730.22
2019-03-25T12:28:37.170Z,96722.38
2019-03-25T12:31:02.994Z,96720.62
2019-03-25T12:33:28.823Z,96708.96
2019-03-25T12:35:54.670Z,96709.08
2019-03-25T12:38:20.505Z,96720.67
2019-03-25T12:40:46.349Z,96721.67
2019-03-25T12:43:12.202Z,96715.86
2019-03-25T12:45:38.051Z,96711.88
2019-03-25T12:48:04.291Z,96718.70
2019-03-25T12:50:30.152Z,96719.55
2019-03-25T12:52:55.966Z,96725.45
2019-03-25T12:55:21.833Z,96718.23
2019-03-25T12:57:47.961Z,96720.50
2019-03-25T13:00:17.614Z,96711.27
2019-03-25T13:02:43.447Z,96711.27
2019-03-25T13:05:09.400Z,96704.27
2019-03-25T13:07:35.205Z,96705.63
2019-03-25T13:10:01.062Z,96706.63
2019-03-25T13:12:26.894Z,96736.61
2019-03-25T13:14:52.726Z,96761.02
2019-03-25T13:17:18.563Z,96747.64
2019-03-25T13:19:44.373Z,96759.81
2019-03-25T13:22:10.226Z,96771.73
2019-03-25T13:24:36.049Z,96772.79
2019-03-25T13:27:01.900Z,96758.99
2019-03-25T13:29:27.727Z,96759.51
2019-03-25T13:31:53.551Z,96736.23
2019-03-25T13:34:19.434Z,96746.62
2019-03-25T13:36:45.258Z,96741.52
2019-03-25T13:39:11.109Z,96730.13
2019-03-25T13:41:36.924Z,96723.42
2019-03-25T13:44:02.771Z,96726.20
2019-03-25T13:46:28.589Z,96723.33
2019-03-25T13:48:55.173Z,96719.78
2019-03-25T13:51:21.060Z,96727.52
2019-03-25T13:53:46.899Z,96724.23
2019-03-25T13:56:12.737Z,96722.94
2019-03-25T13:58:38.562Z,96716.68
2019-03-25T14:01:04.401Z,96724.77
2019-03-25T14:03:30.226Z,96722.87
2019-03-25T14:05:56.042Z,96728.63
2019-03-25T14:08:21.881Z,96732.75
2019-03-25T14:10:47.829Z,96726.37
2019-03-25T14:13:13.671Z,96731.97
2019-03-25T14:15:39.514Z,96733.88
2019-03-25T14:18:05.441Z,96815.95
2019-03-25T14:20:31.376Z,96818.53
2019-03-25T14:22:57.219Z,96815.52
2019-03-25T14:25:23.064Z,96800.70
2019-03-25T14:27:48.885Z,96795.98
2019-03-25T14:30:15.252Z,96793.30
2019-03-25T14:32:41.181Z,96787.69
2019-03-25T14:35:06.996Z,96774.39
2019-03-25T14:37:32.931Z,96783.48
2019-03-25T14:39:58.769Z,96785.51
2019-03-25T14:42:24.612Z,96775.85
2019-03-25T14:44:50.431Z,96777.22
2019-03-25T14:47:16.251Z,96772.81
2019-03-25T14:49:42.085Z,96769.13
2019-03-25T14:52:07.914Z,96765.19
2019-03-25T14:54:34.000Z,96755.57
2019-03-25T14:56:59.876Z,96761.31
2019-03-25T14:59:25.719Z,96764.95
2019-03-25T15:01:51.558Z,96767.45
2019-03-25T15:04:17.406Z,96766.61
2019-03-25T15:06:43.250Z,96765.83
2019-03-25T15:09:09.376Z,96777.44
2019-03-25T15:11:35.313Z,96781.12
2019-03-25T15:14:01.445Z,96782.95
2019-03-25T15:16:27.272Z,96783.69
2019-03-25T15:18:53.113Z,96791.78
2019-03-25T15:21:18.936Z,96804.48
2019-03-25T15:23:44.799Z,96799.42
2019-03-25T15:26:10.617Z,96806.09
2019-03-25T15:28:36.483Z,96811.11
2019-03-25T15:31:02.308Z,96813.92
2019-03-25T15:33:28.224Z,96818.53
2019-03-25T15:35:54.070Z,96819.75
2019-03-25T15:38:19.884Z,96829.89
2019-03-25T15:40:45.745Z,96838.73
2019-03-25T15:43:11.574Z,96832.33
2019-03-25T15:45:37.421Z,96837.45
2019-03-25T15:48:03.263Z,96841.75
2019-03-25T15:50:29.091Z,96840.25
2019-03-25T15:52:55.032Z,96854.22
2019-03-25T15:55:20.973Z,96851.95
2019-03-25T15:57:46.784Z,96858.92
2019-03-25T16:00:15.706Z,96856.72
2019-03-25T16:02:41.644Z,96857.80
2019-03-25T16:05:07.556Z,96860.66
2019-03-25T16:07:33.375Z,96852.32
2019-03-25T16:09:59.216Z,96865.38
2019-03-25T16:12:25.047Z,96867.24
2019-03-25T16:14:50.858Z,96871.41
2019-03-25T16:17:16.688Z,96871.38
2019-03-25T16:19:42.632Z,96874.50
2019-03-25T16:22:08.610Z,96863.03
2019-03-25T16:24:34.448Z,96866.95
2019-03-25T16:27:00.289Z,96866.63
2019-03-25T16:29:26.138Z,96855.92
2019-03-25T16:31:51.962Z,96858.80
2019-03-25T16:34:17.800Z,96856.70
2019-03-25T16:36:43.734Z,96853.84
2019-03-25T16:39:09.651Z,96861.70
2019-03-25T16:41:35.499Z,96865.06
2019-03-25T16:44:01.375Z,96863.48
2019-03-25T16:46:27.221Z,96870.25
2019-03-25T16:48:55.028Z,96873.39
2019-03-25T16:51:20.813Z,96869.81
2019-03-25T16:53:46.643Z,96886.23
2019-03-25T16:56:12.485Z,96878.90
2019-03-25T16:58:38.303Z,96880.95
2019-03-25T17:01:09.859Z,96881.95
2019-03-25T17:03:31.884Z,96881.11
2019-03-25T17:05:57.741Z,96881.06
2019-03-25T17:08:23.569Z,96876.84
2019-03-25T17:10:49.436Z,96878.99
2019-03-25T17:13:15.268Z,96896.52
2019-03-25T17:15:41.144Z,96909.05
2019-03-25T17:18:06.967Z,96904.13
2019-03-25T17:20:32.798Z,96909.84
2019-03-25T17:22:58.661Z,96899.56
2019-03-25T17:25:24.476Z,96910.83
2019-03-25T17:27:50.327Z,96905.58
2019-03-25T17:30:16.468Z,96917.42
2019-03-25T17:32:42.364Z,96923.40
2019-03-25T17:35:08.401Z,96924.73
2019-03-25T17:37:34.251Z,96932.33
2019-03-25T17:40:00.153Z,96934.20
2019-03-25T17:42:26.146Z,96941.53
2019-03-25T17:44:52.004Z,96945.45
2019-03-25T17:47:17.823Z,96945.45
2019-03-25T17:49:43.787Z,96953.87
2019-03-25T17:52:09.599Z,96961.19
2019-03-25T17:54:35.421Z,96965.12
2019-03-25T17:57:01.262Z,96969.80
2019-03-25T17:59:27.119Z,96972.41
2019-03-25T18:01:52.943Z,96975.00
2019-03-25T18:04:18.770Z,96978.62
2019-03-25T18:06:44.628Z,96983.34
2019-03-25T18:09:10.476Z,96989.86
2019-03-25T18:11:36.330Z,97005.57
2019-03-25T18:14:02.289Z,97007.38
2019-03-25T18:16:28.229Z,97015.45
2019-03-25T18:18:54.057Z,97023.56
2019-03-25T18:21:19.912Z,97019.39
2019-03-25T18:23:45.748Z,97033.52
2019-03-25T18:26:11.576Z,97037.20
2019-03-25T18:28:37.416Z,97036.98
2019-03-25T18:31:03.248Z,97040.12
2019-03-25T18:33:29.087Z,97039.62
2019-03-25T18:35:54.951Z,97043.53
2019-03-25T18:38:20.803Z,97049.55
2019-03-25T18:40:46.667Z,97052.69
2019-03-25T18:43:12.627Z,97048.24
2019-03-25T18:45:38.468Z,97050.58
2019-03-25T18:48:04.420Z,97055.55
2019-03-25T18:50:30.393Z,97061.23
2019-03-25T18:52:56.998Z,97066.23
2019-03-25T18:55:23.070Z,97058.36
2019-03-25T18:57:48.920Z,97059.11
2019-03-25T19:00:30.022Z,97069.59
2019-03-25T19:02:55.886Z,97073.98
2019-03-25T19:05:21.733Z,97074.52
2019-03-25T19:07:47.688Z,97075.81
2019-03-25T19:10:17.323Z,97079.16
2019-03-25T19:12:43.328Z,97082.13
2019-03-25T19:15:09.249Z,97086.59
2019-03-25T19:17:35.098Z,97083.20
2019-03-25T19:20:00.975Z,97086.04
2019-03-25T19:22:26.768Z,97091.99
2019-03-25T19:24:52.638Z,97103.09
2019-03-25T19:27:18.466Z,97107.73
2019-03-25T19:29:44.315Z,97113.59
2019-03-25T19:32:10.146Z,97103.18
2019-03-25T19:34:36.042Z,97111.83
2019-03-25T19:37:01.973Z,97116.80
2019-03-25T19:39:27.810Z,97118.88
2019-03-25T19:41:53.658Z,97128.22
2019-03-25T19:44:19.498Z,97135.48
2019-03-25T19:46:45.353Z,97140.42
2019-03-25T19:49:11.197Z,97145.05
2019-03-25T19:51:37.059Z,97146.69
2019-03-25T19:54:02.884Z,97153.73
2019-03-25T19:56:28.730Z,97158.44
2019-03-25T19:58:54.575Z,97155.80
2019-03-25T20:01:20.397Z,97162.13
2019-03-25T20:03:46.273Z,97165.72
2019-03-25T20:06:12.103Z,97172.52
2019-03-25T20:08:37.944Z,97178.45
2019-03-25T20:11:03.792Z,97181.05
2019-03-25T20:13:29.650Z,97194.58
2019-03-25T20:15:55.577Z,97191.66
2019-03-25T20:18:21.530Z,97195.53
2019-03-25T20:20:47.396Z,97204.66
2019-03-25T20:23:13.272Z,97207.98
2019-03-25T20:25:39.160Z,97206.92
2019-03-25T20:28:05.043Z,97218.69
2019-03-25T20:30:30.904Z,97213.69
2019-03-25T20:32:56.834Z,97219.28
2019-03-25T20:35:22.704Z,97221.30
2019-03-25T20:37:48.522Z,97227.08
2019-03-25T20:40:14.487Z,97237.03
2019-03-25T20:42:40.413Z,97241.48
2019-03-25T20:45:06.336Z,97243.23
2019-03-25T20:47:32.261Z,97252.17
2019-03-25T20:49:58.158Z,97257.98
2019-03-25T20:52:24.625Z,97266.58
2019-03-25T20:54:50.617Z,97269.99
2019-03-25T20:57:16.442Z,97287.47
2019-03-25T20:59:42.311Z,97283.81
2019-03-25T21:02:08.352Z,97287.44
2019-03-25T21:04:34.275Z,97288.00
2019-03-25T21:07:00.147Z,97288.52
2019-03-25T21:09:25.998Z,97290.89
2019-03-25T21:11:51.813Z,97301.97
2019-03-25T21:14:17.646Z,97302.87
2019-03-25T21:16:43.607Z,97302.80
2019-03-25T21:19:09.588Z,97306.02
2019-03-25T21:21:35.424Z,97307.52
2019-03-25T21:24:01.388Z,97314.06
2019-03-25T21:26:27.316Z,97313.84
2019-03-25T21:28:53.108Z,97313.07
2019-03-25T21:31:18.940Z,97313.90
2019-03-25T21:33:44.779Z,97320.35
2019-03-25T21:36:10.659Z,97320.64
2019-03-25T21:38:37.314Z,97318.02
2019-03-25T21:41:03.301Z,97325.52
2019-03-25T21:43:29.131Z,97320.89
2019-03-25T21:45:54.954Z,97317.37
2019-03-25T21:48:20.932Z,97316.78
2019-03-25T21:50:46.976Z,97311.23
2019-03-25T21:53:12.801Z,97312.61
2019-03-25T21:55:38.588Z,97311.77
2019-03-25T21:58:04.445Z,97313.13
2019-03-25T22:00:30.284Z,97314.34
2019-03-25T22:02:56.137Z,97310.84
2019-03-25T22:05:21.966Z,97305.75
2019-03-25T22:07:47.816Z,97312.33
2019-03-25T22:10:13.726Z,97310.28
2019-03-25T22:12:39.579Z,97309.86
2019-03-25T22:15:07.713Z,97314.09
2019-03-25T22:17:33.562Z,97318.84
2019-03-25T22:20:00.631Z,97325.96
2019-03-25T22:22:26.505Z,97330.34
2019-03-25T22:24:52.340Z,97327.84
2019-03-25T22:27:18.158Z,97335.16
2019-03-25T22:29:43.996Z,97344.89
2019-03-25T22:32:10.079Z,97342.71
2019-03-25T22:34:35.908Z,97347.05
2019-03-25T22:37:01.744Z,97357.88
2019-03-25T22:39:27.574Z,97360.44
2019-03-25T22:41:53.404Z,97360.95
2019-03-25T22:44:19.262Z,97363.05
2019-03-25T22:46:45.089Z,97362.60
2019-03-25T22:49:10.938Z,97370.66
2019-03-25T22:51:36.785Z,97375.27
2019-03-25T22:54:02.696Z,97377.95
2019-03-25T22:56:28.537Z,97374.88
2019-03-25T22:58:54.388Z,97381.13
2019-03-25T23:01:20.424Z,97384.76
2019-03-25T23:03:46.262Z,97380.75
2019-03-25T23:06:12.103Z,97392.52
2019-03-25T23:08:38.167Z,97385.31
2019-03-25T23:11:04.117Z,97387.41
2019-03-25T23:13:29.929Z,97393.46
2019-03-25T23:15:55.739Z,97392.83
2019-03-25T23:18:21.594Z,97399.86
2019-03-25T23:20:47.509Z,97399.89
2019-03-25T23:23:13.335Z,97399.89
2019-03-25T23:25:39.155Z,97401.29
2019-03-25T23:28:04.986Z,97404.66
2019-03-25T23:30:30.798Z,97414.91
2019-03-25T23:32:56.622Z,97419.02
2019-03-25T23:35:22.427Z,97422.52
2019-03-25T23:37:48.271Z,97418.19
2019-03-25T23:40:14.092Z,97420.52
2019-03-25T23:42:39.938Z,97431.68
2019-03-25T23:45:06.188Z,97436.28
2019-03-25T23:47:32.001Z,97439.19
2019-03-25T23:49:57.865Z,97445.52
2019-03-25T23:52:23.716Z,97436.64
2019-03-25T23:54:49.538Z,97430.61
2019-03-25T23:57:15.383Z,97433.37
2019-03-25T23:59:41.197Z,97441.52
